Time;durP1;ratioP1;P1;durP2;ratioP2;P2;SDS_P1;SDS_P2;PMS_P1;PMS_P2;Temp;Humidity;BMP_temperature;BMP_pressure;BME280_temperature;BME280_humidity;BME280_pressure;Samples;Min_cycle;Max_cycle;Signal;HPM_P1;HPM_P2
2021/06/02 00:00:09;;;;;;;6.05;2.47;;;16.00;99.90;;;;;;5034283;28;20060;-64
2021/06/02 00:02:41;;;;;;;5.32;2.40;;;15.90;99.90;;;;;;5035074;28;20037;-62
2021/06/02 00:05:09;;;;;;;4.53;2.40;;;15.70;99.90;;;;;;5033867;28;20116;-63
2021/06/02 00:07:36;;;;;;;5.22;1.95;;;15.70;99.90;;;;;;5035103;28;20108;-63
2021/06/02 00:10:02;;;;;;;3.47;2.30;;;15.70;99.90;;;;;;5033835;28;20038;-63
2021/06/02 00:12:27;;;;;;;7.53;2.60;;;15.60;99.90;;;;;;5034668;28;20040;-63
2021/06/02 00:14:53;;;;;;;5.93;2.47;;;15.60;99.90;;;;;;5033499;28;20033;-63
2021/06/02 00:17:19;;;;;;;3.65;2.20;;;15.50;99.90;;;;;;5034965;28;20033;-63
2021/06/02 00:19:45;;;;;;;5.28;2.55;;;15.50;99.90;;;;;;5034502;28;20486;-63
2021/06/02 00:22:12;;;;;;;4.82;2.10;;;15.40;99.90;;;;;;5033774;28;20021;-63
2021/06/02 00:24:40;;;;;;;3.58;2.35;;;15.30;99.90;;;;;;5034431;28;20030;-63
2021/06/02 00:27:11;;;;;;;4.07;2.60;;;15.30;99.90;;;;;;5034795;28;20034;-63
2021/06/02 00:29:39;;;;;;;3.92;2.10;;;15.40;99.90;;;;;;5032939;28;20041;-63
2021/06/02 00:32:07;;;;;;;5.00;2.42;;;15.20;99.90;;;;;;5033393;28;20516;-63
2021/06/02 00:34:34;;;;;;;3.03;1.90;;;15.10;99.90;;;;;;5034561;28;20092;-63
2021/06/02 00:37:03;;;;;;;5.50;2.72;;;15.10;99.90;;;;;;5034476;28;20034;-63
2021/06/02 00:39:31;;;;;;;5.20;2.50;;;15.00;99.90;;;;;;5034556;28;20037;-63
2021/06/02 00:41:58;;;;;;;4.45;2.65;;;14.80;99.90;;;;;;5034210;28;20034;-64
2021/06/02 00:44:24;;;;;;;3.60;2.58;;;14.70;99.90;;;;;;5034158;28;20033;-64
2021/06/02 00:46:50;;;;;;;5.00;2.72;;;14.70;99.90;;;;;;5033562;28;20029;-64
2021/06/02 00:49:24;;;;;;;5.15;2.53;;;14.70;99.90;;;;;;5032887;28;20537;-64
2021/06/02 00:52:07;;;;;;;5.50;2.47;;;14.80;99.90;;;;;;5033405;28;20041;-64
2021/06/02 00:54:37;;;;;;;4.05;2.38;;;15.00;99.90;;;;;;5032697;28;20037;-64
2021/06/02 00:57:11;;;;;;;5.85;2.65;;;15.10;99.90;;;;;;5032826;28;20032;-64
2021/06/02 00:59:51;;;;;;;3.55;2.20;;;15.10;99.90;;;;;;5032930;28;20049;-64
2021/06/02 01:02:20;;;;;;;3.70;2.17;;;15.10;99.90;;;;;;5033919;28;20076;-64
2021/06/02 01:04:50;;;;;;;4.80;2.17;;;15.00;99.90;;;;;;5032649;28;20485;-64
2021/06/02 01:07:17;;;;;;;4.03;2.22;;;15.00;99.90;;;;;;5033981;28;20044;-64
2021/06/02 01:09:52;;;;;;;3.70;2.25;;;14.90;99.90;;;;;;5032957;28;20030;-64
2021/06/02 01:12:21;;;;;;;3.78;2.00;;;14.40;99.90;;;;;;5032681;28;20075;-64
2021/06/02 01:14:49;;;;;;;3.47;2.35;;;14.50;99.90;;;;;;5033571;28;20037;-63
2021/06/02 01:17:19;;;;;;;3.45;2.10;;;14.60;99.90;;;;;;5032573;28;20072;-64
2021/06/02 01:19:47;;;;;;;4.93;2.38;;;14.60;99.90;;;;;;5033707;28;20065;-63
2021/06/02 01:22:14;;;;;;;4.32;1.88;;;14.70;99.90;;;;;;5034003;28;20034;-63
2021/06/02 01:24:40;;;;;;;4.28;2.40;;;14.90;99.90;;;;;;5015731;28;20068;-63
2021/06/02 01:27:11;;;;;;;4.18;2.38;;;15.10;99.90;;;;;;5033878;28;20060;-63
2021/06/02 01:29:50;;;;;;;6.47;2.40;;;15.20;99.90;;;;;;5032156;28;20124;-63
2021/06/02 01:32:56;;;;;;;6.35;2.20;;;15.30;99.90;;;;;;5032252;28;20025;-64
2021/06/02 01:36:04;;;;;;;3.33;2.00;;;15.20;99.90;;;;;;5030822;28;20541;-63
2021/06/02 01:39:16;;;;;;;4.72;2.05;;;15.00;99.90;;;;;;5048070;28;20036;-63
2021/06/02 01:42:23;;;;;;;3.50;1.92;;;14.90;99.90;;;;;;5032382;28;20037;-63
2021/06/02 01:45:23;;;;;;;4.13;2.17;;;15.00;99.90;;;;;;5032984;28;20037;-63
2021/06/02 01:48:30;;;;;;;8.90;2.42;;;15.10;99.90;;;;;;5033286;28;20021;-63
2021/06/02 01:51:34;;;;;;;3.65;1.88;;;14.90;99.90;;;;;;5032975;28;20039;-63
2021/06/02 01:54:15;;;;;;;3.17;2.20;;;14.60;99.90;;;;;;5032857;28;20033;-63
2021/06/02 01:57:06;;;;;;;3.63;2.58;;;14.40;99.90;;;;;;5031290;28;20087;-63
2021/06/02 02:00:38;;;;;;;3.58;2.50;;;14.30;99.90;;;;;;5031665;28;20045;-63
2021/06/02 02:03:43;;;;;;;6.47;2.50;;;14.20;99.90;;;;;;5030440;28;20485;-63
2021/06/02 02:06:39;;;;;;;4.70;2.92;;;14.10;99.90;;;;;;5030504;28;20041;-63
2021/06/02 02:09:21;;;;;;;8.63;3.20;;;14.10;99.90;;;;;;5030600;28;20069;-63
2021/06/02 02:11:47;;;;;;;5.50;2.72;;;14.30;99.90;;;;;;5015120;28;20179;-63
2021/06/02 02:15:05;;;;;;;6.03;2.90;;;14.20;99.90;;;;;;5030355;28;20540;-63
2021/06/02 02:18:01;;;;;;;3.92;2.50;;;14.30;99.90;;;;;;5030240;28;20095;-63
2021/06/02 02:20:46;;;;;;;3.92;2.40;;;13.90;99.90;;;;;;5030029;28;20438;-63
2021/06/02 02:23:45;;;;;;;3.78;2.72;;;13.90;99.90;;;;;;5014309;28;20041;-63
2021/06/02 02:26:46;;;;;;;5.07;2.95;;;13.90;99.90;;;;;;5015655;28;20040;-63
2021/06/02 02:29:55;;;;;;;6.40;2.80;;;14.10;99.90;;;;;;5029976;28;20064;-63
2021/06/02 02:33:03;;;;;;;4.95;2.88;;;14.10;99.90;;;;;;5013589;28;20490;-63
2021/06/02 02:36:05;;;;;;;7.50;2.78;;;14.20;99.90;;;;;;5031506;28;20037;-63
2021/06/02 02:38:49;;;;;;;6.95;3.15;;;14.20;99.90;;;;;;5032255;28;20052;-63
2021/06/02 02:41:52;;;;;;;3.92;2.65;;;14.20;99.90;;;;;;5031260;28;20079;-63
2021/06/02 02:45:17;;;;;;;7.28;3.30;;;14.20;99.90;;;;;;5032423;28;20489;-63
2021/06/02 02:48:27;;;;;;;5.78;3.03;;;14.00;99.90;;;;;;5031821;28;20053;-63
2021/06/02 02:51:31;;;;;;;4.82;3.05;;;14.20;99.90;;;;;;5032515;28;20049;-63
2021/06/02 02:54:07;;;;;;;4.65;2.85;;;14.00;99.90;;;;;;5031011;28;20536;-63
2021/06/02 02:56:52;;;;;;;5.03;2.90;;;14.10;99.90;;;;;;5030852;28;20029;-63
2021/06/02 02:59:29;;;;;;;5.53;2.80;;;14.20;99.90;;;;;;5031048;28;20044;-63
2021/06/02 03:02:08;;;;;;;4.68;2.88;;;14.30;99.90;;;;;;5031474;28;20041;-63
2021/06/02 03:04:44;;;;;;;4.03;2.80;;;14.30;99.90;;;;;;5030862;28;20037;-63
2021/06/02 03:07:12;;;;;;;6.70;3.30;;;14.20;99.90;;;;;;5030851;28;20037;-62
2021/06/02 03:10:06;;;;;;;7.18;2.90;;;14.20;99.90;;;;;;5017300;28;20044;-63
2021/06/02 03:12:48;;;;;;;4.00;2.50;;;13.70;99.90;;;;;;5034651;28;20113;-63
2021/06/02 03:15:44;;;;;;;4.07;2.40;;;13.60;99.90;;;;;;5036266;28;20045;-63
2021/06/02 03:18:51;;;;;;;6.30;2.95;;;13.50;99.90;;;;;;5034755;28;20087;-63
2021/06/02 03:22:03;;;;;;;5.18;2.78;;;13.50;99.90;;;;;;5035153;28;20038;-63
2021/06/02 03:24:29;;;;;;;4.97;2.88;;;13.40;99.90;;;;;;5035714;28;20033;-64
2021/06/02 03:27:03;;;;;;;5.53;3.20;;;13.30;99.90;;;;;;5036035;28;20037;-63
2021/06/02 03:29:44;;;;;;;3.80;2.38;;;13.20;99.90;;;;;;5035435;28;20045;-63
2021/06/02 03:32:44;;;;;;;5.65;3.00;;;13.30;99.90;;;;;;5035971;28;20034;-63
2021/06/02 03:35:55;;;;;;;4.60;2.75;;;13.30;99.90;;;;;;5034425;28;20037;-64
2021/06/02 03:38:52;;;;;;;8.03;3.07;;;13.20;99.90;;;;;;5035700;28;20044;-63
2021/06/02 03:42:01;;;;;;;5.10;2.83;;;13.00;99.90;;;;;;5035319;28;20036;-63
2021/06/02 03:45:27;;;;;;;4.90;3.33;;;13.00;99.90;;;;;;5035406;28;20397;-64
2021/06/02 03:48:17;;;;;;;7.07;3.03;;;12.50;99.90;;;;;;5034766;28;20037;-64
2021/06/02 03:51:01;;;;;;;15.35;3.25;;;12.80;99.90;;;;;;5035481;28;20037;-64
2021/06/02 03:54:11;;;;;;;7.93;3.10;;;12.50;99.90;;;;;;5035090;28;20045;-65
2021/06/02 03:57:03;;;;;;;12.18;3.40;;;12.50;99.90;;;;;;5023041;28;20037;-64
2021/06/02 03:59:38;;;;;;;6.22;3.78;;;12.60;99.90;;;;;;5054696;28;20036;-64
2021/06/02 04:02:50;;;;;;;5.97;4.10;;;12.30;99.90;;;;;;5051069;28;20039;-64
2021/06/02 04:05:37;;;;;;;6.53;3.88;;;12.60;99.90;;;;;;5034565;28;20044;-64
2021/06/02 04:08:40;;;;;;;10.52;4.00;;;12.50;99.90;;;;;;5035061;28;20132;-62
2021/06/02 04:11:40;;;;;;;5.10;3.55;;;12.80;99.90;;;;;;5034978;28;20040;-64
2021/06/02 04:14:07;;;;;;;6.35;3.80;;;13.00;99.90;;;;;;5015327;28;20513;-64
2021/06/02 04:16:38;;;;;;;5.70;2.95;;;13.00;99.90;;;;;;5047559;28;20056;-64
2021/06/02 04:19:15;;;;;;;3.90;2.72;;;13.10;99.90;;;;;;5054657;28;20045;-67
2021/06/02 04:21:45;;;;;;;5.57;2.65;;;13.20;99.90;;;;;;5052889;28;20037;-66
2021/06/02 04:24:17;;;;;;;4.15;2.78;;;13.20;99.90;;;;;;5053196;28;20029;-65
2021/06/02 04:26:44;;;;;;;5.90;3.40;;;13.30;99.90;;;;;;5054305;28;20029;-67
2021/06/02 04:29:13;;;;;;;8.85;3.53;;;13.30;99.90;;;;;;5053091;28;20219;-66
2021/06/02 04:31:52;;;;;;;8.55;2.97;;;13.30;99.90;;;;;;5054083;28;20083;-67
2021/06/02 04:34:21;;;;;;;8.13;3.30;;;13.30;99.90;;;;;;5054415;28;20025;-66
2021/06/02 04:36:52;;;;;;;5.82;2.85;;;13.50;99.90;;;;;;5052859;28;20390;-66
2021/06/02 04:39:22;;;;;;;7.43;3.10;;;13.60;99.90;;;;;;5054652;28;20037;-66
2021/06/02 04:41:52;;;;;;;5.60;3.55;;;13.60;99.90;;;;;;5054189;28;20044;-66
2021/06/02 04:44:21;;;;;;;5.28;3.35;;;13.60;99.90;;;;;;5053580;28;20028;-65
2021/06/02 04:46:47;;;;;;;6.15;3.30;;;13.50;99.90;;;;;;5042017;28;20033;-66
2021/06/02 04:49:14;;;;;;;5.53;3.30;;;13.40;99.90;;;;;;5033297;28;20033;-66
2021/06/02 04:51:59;;;;;;;8.00;3.35;;;13.50;99.90;;;;;;5032887;28;20045;-66
2021/06/02 04:54:36;;;;;;;10.80;3.65;;;13.60;99.90;;;;;;5034364;28;20087;-66
2021/06/02 04:57:23;;;;;;;8.00;3.20;;;13.80;99.90;;;;;;5034035;28;20442;-66
2021/06/02 05:00:32;;;;;;;8.52;3.40;;;13.90;99.90;;;;;;5034017;28;20507;-66
2021/06/02 05:03:38;;;;;;;6.88;3.50;;;14.00;99.90;;;;;;5032593;28;20112;-67
2021/06/02 05:06:19;;;;;;;5.38;3.15;;;14.10;99.90;;;;;;5032197;28;20041;-67
2021/06/02 05:09:22;;;;;;;7.00;3.00;;;14.30;99.90;;;;;;5034058;28;20140;-66
2021/06/02 05:12:14;;;;;;;4.97;2.97;;;14.50;99.90;;;;;;5033900;28;20072;-67
2021/06/02 05:15:10;;;;;;;6.25;3.33;;;14.70;99.90;;;;;;5032378;28;20494;-64
2021/06/02 05:17:36;;;;;;;5.28;3.00;;;14.90;99.90;;;;;;5050630;28;20761;-61
2021/06/02 05:24:13;;;;;;;8.52;4.75;;;15.10;99.90;;;;;;5050496;28;20052;-64
2021/06/02 05:27:20;;;;;;;40.15;22.30;;;15.20;99.90;;;;;;5037982;28;20044;-64
2021/06/02 05:30:07;;;;;;;14.20;5.75;;;15.40;99.90;;;;;;5032666;28;20398;-64
2021/06/02 05:32:36;;;;;;;7.47;3.17;;;15.40;99.90;;;;;;5031670;28;20041;-64
2021/06/02 05:35:54;;;;;;;6.13;3.53;;;15.50;99.90;;;;;;5032106;28;20095;-64
2021/06/02 05:38:49;;;;;;;8.98;3.15;;;15.60;99.90;;;;;;5033222;28;20049;-64
2021/06/02 05:41:36;;;;;;;7.22;3.05;;;15.60;99.90;;;;;;5032083;28;20037;-64
2021/06/02 05:44:48;;;;;;;7.63;3.17;;;15.70;99.90;;;;;;5031934;28;20512;-64
2021/06/02 05:47:25;;;;;;;4.15;2.75;;;15.90;99.90;;;;;;5047564;28;20049;-64
2021/06/02 05:50:31;;;;;;;7.03;2.92;;;16.10;99.90;;;;;;5052916;28;20032;-64
2021/06/02 05:54:05;;;;;;;4.57;2.60;;;16.20;99.90;;;;;;5052644;28;20040;-64
2021/06/02 05:56:39;;;;;;;6.78;3.13;;;16.30;99.90;;;;;;5068434;28;20092;-64
2021/06/02 05:59:47;;;;;;;7.72;3.33;;;16.40;99.90;;;;;;5052776;28;20037;-64
2021/06/02 06:02:53;;;;;;;9.48;3.53;;;16.50;99.90;;;;;;5066870;28;20484;-62
2021/06/02 06:05:36;;;;;;;7.30;3.40;;;16.60;99.90;;;;;;5051768;28;20056;-62
2021/06/02 06:08:32;;;;;;;6.93;3.40;;;16.80;99.90;;;;;;5049403;28;20040;-62
2021/06/02 06:11:45;;;;;;;7.25;3.33;;;16.80;99.90;;;;;;5052545;28;20239;-62
2021/06/02 06:15:31;;;;;;;5.97;2.97;;;16.90;99.90;;;;;;5034548;28;20378;-63
2021/06/02 06:18:18;;;;;;;5.38;2.83;;;17.00;99.90;;;;;;5000568;28;20052;-62
2021/06/02 06:21:10;;;;;;;6.07;2.50;;;17.20;98.10;;;;;;5013843;28;20029;-61
2021/06/02 06:24:18;;;;;;;6.97;2.28;;;17.30;95.70;;;;;;5031454;28;20117;-62
2021/06/02 06:27:14;;;;;;;7.93;2.10;;;17.40;95.70;;;;;;5015643;28;20501;-63
2021/06/02 06:30:10;;;;;;;8.02;2.50;;;17.60;95.70;;;;;;5030620;28;20081;-63
2021/06/02 06:32:38;;;;;;;5.05;2.45;;;17.70;95.30;;;;;;5032143;28;20385;-63
2021/06/02 06:35:08;;;;;;;8.98;4.60;;;17.90;95.30;;;;;;5031013;28;20390;-63
2021/06/02 06:37:42;;;;;;;5.32;2.10;;;18.10;98.60;;;;;;5031110;28;20069;-63
2021/06/02 06:40:12;;;;;;;7.82;3.03;;;18.10;94.80;;;;;;5031139;28;20500;-63
2021/06/02 06:42:44;;;;;;;4.20;1.98;;;18.20;95.00;;;;;;5031181;28;20080;-63
2021/06/02 06:45:18;;;;;;;6.72;2.70;;;18.20;94.00;;;;;;5030666;28;20041;-63
2021/06/02 06:47:48;;;;;;;6.95;2.28;;;18.30;93.60;;;;;;4998761;28;20497;-63
2021/06/02 06:50:17;;;;;;;6.20;2.67;;;18.40;93.60;;;;;;5047201;28;20037;-63
2021/06/02 06:52:51;;;;;;;5.90;2.13;;;18.60;93.50;;;;;;5030672;28;20038;-63
2021/06/02 06:55:17;;;;;;;5.85;3.33;;;18.70;92.70;;;;;;5047024;28;20044;-63
2021/06/02 06:57:46;;;;;;;4.85;2.10;;;18.70;92.60;;;;;;5032201;28;20026;-63
2021/06/02 07:00:13;;;;;;;7.10;2.70;;;18.70;91.80;;;;;;5046979;28;20045;-64
2021/06/02 07:02:42;;;;;;;6.28;2.33;;;18.80;93.00;;;;;;5047221;28;20053;-63
2021/06/02 07:05:11;;;;;;;4.35;1.95;;;18.90;92.50;;;;;;5030668;28;20032;-63
2021/06/02 07:07:41;;;;;;;9.20;5.07;;;19.00;91.30;;;;;;5047320;28;20041;-63
2021/06/02 07:10:10;;;;;;;5.80;2.00;;;19.10;92.30;;;;;;5031814;28;20056;-63
2021/06/02 07:12:38;;;;;;;3.38;1.67;;;19.10;89.90;;;;;;5046865;28;20288;-63
2021/06/02 07:15:08;;;;;;;3.53;1.75;;;19.10;89.60;;;;;;5046764;28;20436;-63
2021/06/02 07:17:47;;;;;;;2.60;1.50;;;19.20;90.30;;;;;;5064297;28;20032;-62
2021/06/02 07:20:21;;;;;;;5.13;1.80;;;19.40;89.90;;;;;;5050960;28;20040;-64
2021/06/02 07:22:49;;;;;;;5.55;2.00;;;19.50;90.60;;;;;;5031451;28;20042;-62
2021/06/02 07:25:21;;;;;;;5.25;2.28;;;19.60;90.40;;;;;;5031779;28;20033;-62
2021/06/02 07:27:48;;;;;;;8.88;2.10;;;19.70;88.80;;;;;;5030197;28;20054;-62
2021/06/02 07:30:16;;;;;;;4.20;1.80;;;19.80;88.20;;;;;;5030791;28;20044;-64
2021/06/02 07:32:43;;;;;;;5.10;1.55;;;19.80;87.30;;;;;;5031358;28;20032;-63
2021/06/02 07:35:10;;;;;;;4.68;1.70;;;19.90;85.20;;;;;;5031590;28;20045;-64
2021/06/02 07:37:36;;;;;;;1.88;1.25;;;20.00;83.70;;;;;;5031482;28;20072;-64
2021/06/02 07:40:05;;;;;;;3.47;1.63;;;20.10;84.80;;;;;;5031284;28;20124;-63
2021/06/02 07:42:30;;;;;;;5.45;2.22;;;20.20;82.40;;;;;;5031771;28;20371;-63
2021/06/02 07:44:56;;;;;;;4.07;1.60;;;20.30;83.10;;;;;;5031371;28;20083;-63
2021/06/02 07:47:22;;;;;;;5.53;1.70;;;20.30;83.20;;;;;;5045869;28;20033;-63
2021/06/02 07:49:48;;;;;;;3.45;1.90;;;20.30;80.60;;;;;;5051573;28;20040;-64
2021/06/02 07:52:14;;;;;;;3.65;1.60;;;20.30;80.90;;;;;;5051804;28;20377;-64
2021/06/02 07:54:41;;;;;;;2.72;1.30;;;20.40;79.90;;;;;;5051840;28;20039;-62
2021/06/02 07:57:08;;;;;;;3.83;1.65;;;20.50;77.30;;;;;;5054859;28;20025;-62
2021/06/02 07:59:34;;;;;;;4.30;1.45;;;20.60;79.60;;;;;;5055169;28;20507;-62
2021/06/02 08:02:02;;;;;;;3.72;1.42;;;20.80;76.60;;;;;;5055051;28;20033;-63
2021/06/02 08:04:29;;;;;;;5.47;2.33;;;20.80;75.10;;;;;;5054817;28;20028;-63
2021/06/02 08:06:55;;;;;;;3.25;1.70;;;20.90;75.10;;;;;;5054607;28;20036;-62
2021/06/02 08:09:21;;;;;;;3.47;1.40;;;20.90;75.50;;;;;;5040858;28;20148;-62
2021/06/02 08:11:48;;;;;;;2.92;1.52;;;20.90;73.70;;;;;;5033544;28;20021;-63
2021/06/02 08:14:15;;;;;;;3.08;1.70;;;21.00;72.50;;;;;;5033529;28;20033;-63
2021/06/02 08:16:42;;;;;;;6.82;2.10;;;21.00;72.10;;;;;;5043458;28;20029;-63
2021/06/02 08:19:07;;;;;;;3.25;1.02;;;21.10;73.00;;;;;;5054794;28;20032;-62
2021/06/02 08:21:34;;;;;;;2.85;1.27;;;21.30;72.70;;;;;;5054616;28;20370;-63
2021/06/02 08:24:01;;;;;;;3.33;1.30;;;21.40;73.00;;;;;;5054401;28;20493;-63
2021/06/02 08:26:27;;;;;;;6.03;1.70;;;21.50;71.80;;;;;;5053304;28;20370;-63
2021/06/02 08:28:56;;;;;;;3.03;1.25;;;21.60;70.90;;;;;;5054167;28;20052;-63
2021/06/02 08:31:23;;;;;;;5.53;1.33;;;21.60;70.00;;;;;;5053167;28;20036;-63
2021/06/02 08:33:49;;;;;;;2.17;1.35;;;21.80;70.10;;;;;;5054148;28;20067;-62
2021/06/02 08:36:14;;;;;;;6.20;1.17;;;21.90;68.70;;;;;;5054298;28;20037;-63
2021/06/02 08:38:40;;;;;;;3.45;1.55;;;22.00;69.30;;;;;;5054505;28;20071;-62
2021/06/02 08:41:07;;;;;;;2.13;1.25;;;22.10;70.40;;;;;;5052878;28;20045;-63
2021/06/02 08:43:34;;;;;;;4.93;1.38;;;22.10;67.80;;;;;;5054366;28;20029;-63
2021/06/02 08:46:01;;;;;;;2.00;1.27;;;22.30;66.20;;;;;;5049415;28;20037;-62
2021/06/02 08:48:27;;;;;;;2.90;1.10;;;22.30;65.70;;;;;;5033003;28;20120;-62
2021/06/02 08:50:53;;;;;;;3.53;1.20;;;22.30;63.30;;;;;;5032670;28;20497;-62
2021/06/02 08:53:20;;;;;;;3.60;1.52;;;22.40;64.70;;;;;;5034159;28;20145;-63
2021/06/02 08:55:47;;;;;;;4.47;1.50;;;22.40;64.80;;;;;;5034102;28;20026;-63
2021/06/02 08:58:22;;;;;;;2.33;1.10;;;22.50;66.30;;;;;;5034197;28;20404;-63
2021/06/02 09:00:49;;;;;;;2.33;1.40;;;22.70;64.40;;;;;;5034076;28;20394;-63
2021/06/02 09:03:16;;;;;;;3.40;1.20;;;22.80;60.60;;;;;;5033682;28;20396;-62
2021/06/02 09:05:42;;;;;;;1.85;1.10;;;22.80;60.90;;;;;;5033789;28;20485;-63
2021/06/02 09:08:13;;;;;;;3.63;1.27;;;22.90;60.30;;;;;;5032183;28;20045;-63
2021/06/02 09:10:43;;;;;;;3.17;1.33;;;23.00;58.40;;;;;;5032526;28;20033;-63
2021/06/02 09:13:22;;;;;;;4.05;1.38;;;23.00;58.20;;;;;;5032462;28;20060;-64
2021/06/02 09:15:52;;;;;;;2.35;0.98;;;23.10;58.30;;;;;;5034771;28;20045;-64
2021/06/02 09:18:23;;;;;;;3.22;1.30;;;23.20;58.60;;;;;;5052367;28;20082;-64
2021/06/02 09:20:52;;;;;;;2.75;1.23;;;23.40;59.00;;;;;;5052199;28;20072;-64
2021/06/02 09:23:46;;;;;;;3.90;1.13;;;23.60;57.90;;;;;;5053387;28;20477;-63
2021/06/02 09:26:26;;;;;;;16.80;9.18;;;23.80;57.70;;;;;;5052088;28;20033;-63
2021/06/02 09:29:11;;;;;;;2.13;1.30;;;23.80;55.60;;;;;;5053085;28;20049;-63
2021/06/02 09:31:39;;;;;;;2.45;1.20;;;23.80;56.70;;;;;;5052288;28;20473;-63
2021/06/02 09:34:14;;;;;;;4.68;1.00;;;23.70;56.70;;;;;;5053279;28;20033;-63
2021/06/02 09:36:41;;;;;;;1.80;1.00;;;23.60;56.80;;;;;;5053188;28;20045;-63
2021/06/02 09:39:14;;;;;;;2.90;1.10;;;23.70;56.30;;;;;;5051845;28;20029;-64
2021/06/02 09:41:46;;;;;;;2.38;1.20;;;23.80;55.70;;;;;;5051973;28;20037;-64
2021/06/02 09:44:18;;;;;;;2.53;1.08;;;23.90;56.40;;;;;;5052986;28;20033;-64
2021/06/02 09:46:59;;;;;;;5.15;1.30;;;23.90;56.00;;;;;;5042742;28;20043;-63
2021/06/02 09:49:26;;;;;;;2.55;1.35;;;23.90;56.60;;;;;;5033427;28;20575;-64
2021/06/02 09:51:53;;;;;;;1.95;1.20;;;24.30;57.00;;;;;;5033101;28;20041;-64
2021/06/02 09:54:24;;;;;;;3.70;0.90;;;24.20;56.50;;;;;;5031650;28;20036;-63
2021/06/02 09:56:51;;;;;;;1.92;1.00;;;24.40;55.70;;;;;;5032961;28;20049;-64
2021/06/02 09:59:18;;;;;;;3.05;1.00;;;24.30;55.50;;;;;;5031737;28;20037;-63
2021/06/02 10:02:00;;;;;;;3.75;1.20;;;24.40;55.40;;;;;;5032987;28;20095;-63
2021/06/02 10:04:30;;;;;;;2.70;1.20;;;24.50;55.80;;;;;;5015728;28;20084;-63
2021/06/02 10:06:57;;;;;;;1.90;1.10;;;24.70;56.70;;;;;;5031397;28;20030;-63
2021/06/02 10:09:35;;;;;;;2.75;1.40;;;24.90;56.80;;;;;;5032975;28;20287;-63
2021/06/02 10:12:07;;;;;;;1.90;1.30;;;24.90;54.40;;;;;;5032771;28;20033;-64
2021/06/02 10:14:33;;;;;;;3.33;1.20;;;25.30;54.30;;;;;;5031224;28;20033;-64
2021/06/02 10:16:59;;;;;;;2.63;1.30;;;25.50;55.60;;;;;;5041761;28;20029;-64
2021/06/02 10:19:42;;;;;;;4.90;1.10;;;25.60;54.50;;;;;;5050681;28;20033;-64
2021/06/02 10:22:28;;;;;;;3.25;1.48;;;25.40;53.50;;;;;;5052236;28;20424;-64
2021/06/02 10:24:59;;;;;;;3.90;1.20;;;25.40;53.50;;;;;;5051099;28;20041;-63
2021/06/02 10:27:25;;;;;;;;;;;25.50;54.50;;;;;;5051516;28;20108;-67
2021/06/02 10:29:51;;;;;;;2.35;1.33;;;25.70;54.10;;;;;;5067601;28;19920;-58
2021/06/02 10:32:19;;;;;;;1.58;0.90;;;25.80;52.20;;;;;;5052410;28;20534;-65
2021/06/02 10:34:46;;;;;;;3.65;1.17;;;25.80;53.20;;;;;;5052458;28;20437;-64
2021/06/02 10:37:16;;;;;;;2.85;1.35;;;25.90;52.70;;;;;;5052062;28;20058;-64
2021/06/02 10:39:50;;;;;;;3.08;1.20;;;25.80;52.60;;;;;;5052245;28;20362;-64
2021/06/02 10:42:28;;;;;;;2.38;1.20;;;25.80;51.80;;;;;;5051010;28;20206;-67
2021/06/02 10:45:00;;;;;;;5.90;1.17;;;25.70;51.50;;;;;;5051134;28;20033;-64
2021/06/02 10:47:27;;;;;;;2.08;1.00;;;25.70;50.70;;;;;;5035915;28;20029;-67
2021/06/02 10:49:53;;;;;;;2.22;1.05;;;25.70;50.50;;;;;;5030804;28;20057;-67
2021/06/02 10:52:38;;;;;;;3.80;1.45;;;25.80;50.50;;;;;;5031107;28;20029;-67
2021/06/02 10:55:31;;;;;;;4.15;1.17;;;25.80;50.70;;;;;;5031894;28;20034;-67
2021/06/02 10:58:21;;;;;;;3.00;1.17;;;25.90;51.40;;;;;;5031077;28;20025;-67
2021/06/02 11:00:51;;;;;;;1.90;1.10;;;26.00;50.80;;;;;;5032166;28;20082;-66
2021/06/02 11:03:29;;;;;;;2.27;1.10;;;26.00;50.40;;;;;;5031554;28;20040;-66
2021/06/02 11:06:19;;;;;;;1.65;0.95;;;26.10;49.50;;;;;;5032205;28;20025;-66
2021/06/02 11:08:48;;;;;;;1.85;1.13;;;26.00;49.90;;;;;;5031296;28;20050;-66
2021/06/02 11:11:28;;;;;;;4.57;1.35;;;26.40;52.50;;;;;;5030655;28;20525;-68
2021/06/02 11:14:13;;;;;;;;;;;26.90;51.40;;;;;;5032253;28;20032;-66
2021/06/02 11:16:44;;;;;;;3.33;1.20;;;27.30;48.90;;;;;;5041572;28;20296;-66
2021/06/02 11:19:20;;;;;;;2.00;0.98;;;27.40;49.10;;;;;;5051905;28;20028;-66
2021/06/02 11:21:52;;;;;;;2.33;1.00;;;27.20;49.30;;;;;;5051717;28;20107;-67
2021/06/02 11:24:37;;;;;;;3.05;1.05;;;27.40;46.40;;;;;;5051888;28;20381;-67
2021/06/02 11:29:49;;;;;;;2.60;1.02;;;27.40;45.90;;;;;;5052274;28;20089;-66
2021/06/02 11:32:15;;;;;;;4.40;1.00;;;27.60;46.70;;;;;;5055553;28;20033;-66
2021/06/02 11:34:44;;;;;;;2.38;0.90;;;27.20;46.90;;;;;;5055633;28;20044;-66
2021/06/02 11:37:14;;;;;;;2.50;1.00;;;27.50;47.70;;;;;;5054027;28;20029;-66
2021/06/02 11:39:41;;;;;;;2.25;1.00;;;27.30;47.10;;;;;;5054230;28;20025;-66
2021/06/02 11:42:10;;;;;;;2.85;1.02;;;27.50;46.30;;;;;;5053853;28;20473;-67
2021/06/02 11:44:38;;;;;;;2.42;0.95;;;27.70;47.10;;;;;;5055483;28;20037;-66
2021/06/02 11:47:08;;;;;;;2.03;1.02;;;27.80;46.40;;;;;;5042159;28;20044;-65
2021/06/02 11:49:36;;;;;;;2.03;0.87;;;28.00;47.40;;;;;;5035517;28;20493;-66
2021/06/02 11:52:12;;;;;;;1.70;0.88;;;28.00;46.00;;;;;;5034837;28;20167;-66
2021/06/02 11:54:56;;;;;;;1.85;0.88;;;27.90;45.50;;;;;;5035037;28;20040;-66
2021/06/02 11:57:31;;;;;;;2.15;0.98;;;28.20;45.20;;;;;;5035089;28;20102;-66
2021/06/02 12:00:09;;;;;;;2.60;1.20;;;28.20;43.50;;;;;;5034054;28;20040;-66
2021/06/02 12:02:36;;;;;;;1.88;0.95;;;28.20;44.50;;;;;;5034025;28;20413;-66
2021/06/02 12:05:26;;;;;;;2.05;0.90;;;28.70;45.30;;;;;;5034008;28;20022;-66
2021/06/02 12:08:06;;;;;;;2.08;0.90;;;28.60;43.10;;;;;;5034974;28;20421;-66
2021/06/02 12:10:44;;;;;;;1.63;0.90;;;28.50;43.80;;;;;;5034950;28;20503;-66
2021/06/02 12:13:14;;;;;;;1.40;0.88;;;28.60;42.90;;;;;;5034663;28;20366;-66
2021/06/02 12:15:47;;;;;;;1.42;0.90;;;28.50;42.90;;;;;;5042753;28;20044;-66
2021/06/02 12:18:36;;;;;;;2.10;1.05;;;28.70;43.00;;;;;;5016769;28;20039;-66
2021/06/02 12:21:27;;;;;;;2.10;1.00;;;29.00;42.70;;;;;;5034570;28;20030;-66
2021/06/02 12:24:09;;;;;;;1.63;0.88;;;28.20;41.60;;;;;;5033626;28;20030;-66
2021/06/02 12:26:42;;;;;;;2.40;0.80;;;28.90;43.30;;;;;;5034679;28;20120;-66
2021/06/02 12:29:14;;;;;;;3.15;0.90;;;29.20;43.10;;;;;;5034267;28;20041;-66
2021/06/02 12:31:47;;;;;;;3.42;1.00;;;28.90;41.30;;;;;;5034451;28;20030;-67
2021/06/02 12:34:15;;;;;;;1.80;1.00;;;28.60;41.00;;;;;;5034440;28;20113;-67
2021/06/02 12:36:54;;;;;;;2.67;1.00;;;28.90;43.10;;;;;;5034658;28;20056;-67
2021/06/02 12:39:29;;;;;;;4.97;1.10;;;28.90;41.90;;;;;;5016737;28;20038;-66
2021/06/02 12:41:57;;;;;;;3.15;1.17;;;28.60;42.70;;;;;;5032196;28;20087;-67
2021/06/02 12:44:28;;;;;;;1.77;0.90;;;28.70;42.60;;;;;;5034433;28;20039;-67
2021/06/02 12:47:01;;;;;;;3.13;1.05;;;29.00;42.80;;;;;;5045156;28;20040;-66
2021/06/02 12:49:28;;;;;;;2.72;1.10;;;29.10;42.70;;;;;;5054310;28;20385;-66
2021/06/02 12:51:56;;;;;;;2.28;1.10;;;29.30;41.50;;;;;;5069249;28;20476;-66
2021/06/02 12:54:30;;;;;;;1.30;0.90;;;28.90;42.70;;;;;;5054088;28;20060;-64
2021/06/02 12:56:59;;;;;;;1.85;1.08;;;29.30;43.30;;;;;;5053162;28;20541;-66
2021/06/02 12:59:36;;;;;;;1.95;1.30;;;29.70;42.40;;;;;;5053468;28;20395;-66
2021/06/02 13:02:06;;;;;;;3.38;1.60;;;30.10;40.90;;;;;;5052233;28;20033;-66
2021/06/02 13:04:33;;;;;;;3.28;1.98;;;30.20;40.80;;;;;;5053714;28;20037;-65
2021/06/02 13:06:59;;;;;;;2.50;1.15;;;30.20;40.80;;;;;;5053536;28;20033;-66
2021/06/02 13:09:26;;;;;;;1.88;0.90;;;30.30;41.40;;;;;;5052284;28;20120;-66
2021/06/02 13:11:53;;;;;;;1.52;1.00;;;28.90;40.50;;;;;;5053972;28;20478;-66
2021/06/02 13:14:32;;;;;;;3.85;2.03;;;29.20;40.40;;;;;;5053674;28;20043;-66
2021/06/02 13:16:58;;;;;;;2.03;0.95;;;29.50;39.80;;;;;;5040126;28;20381;-67
2021/06/02 13:19:41;;;;;;;1.60;0.90;;;30.10;39.90;;;;;;5032162;28;20030;-66
2021/06/02 13:22:23;;;;;;;2.35;1.15;;;30.00;39.10;;;;;;5033456;28;20034;-66
2021/06/02 13:24:50;;;;;;;2.28;0.90;;;29.90;39.80;;;;;;5032380;28;20048;-65
2021/06/02 13:27:20;;;;;;;1.42;0.82;;;30.40;38.20;;;;;;5031984;28;20076;-65
2021/06/02 13:30:09;;;;;;;1.77;0.90;;;31.00;38.00;;;;;;5033218;28;20095;-66
2021/06/02 13:32:36;;;;;;;2.00;0.90;;;30.60;38.10;;;;;;5033172;28;20052;-65
2021/06/02 13:35:18;;;;;;;4.20;1.20;;;31.30;37.40;;;;;;5033221;28;20299;-65
2021/06/02 13:37:45;;;;;;;1.65;0.80;;;31.50;37.40;;;;;;5032406;28;20075;-65
2021/06/02 13:40:18;;;;;;;1.60;0.80;;;32.40;36.70;;;;;;5033325;28;20033;-65
2021/06/02 13:43:16;;;;;;;3.55;0.90;;;31.30;37.50;;;;;;5033246;28;20091;-65
2021/06/02 13:45:56;;;;;;;1.35;0.70;;;32.00;38.50;;;;;;5035219;28;20482;-65
2021/06/02 13:49:01;;;;;;;2.08;0.95;;;32.40;37.20;;;;;;5052837;28;20358;-65
2021/06/02 13:51:32;;;;;;;2.30;0.90;;;32.20;36.40;;;;;;5029519;28;20075;-65